sensor_id;sensor_type;location;lat;lon;timestamp;P1;durP1;ratioP1;P2;durP2;ratioP2
72235;SDS011;60146;52.498;13.462;2023-09-07T00:01:43;6.70;;;4.30;;
72235;SDS011;60146;52.498;13.462;2023-09-07T00:04:09;6.90;;;4.13;;
72235;SDS011;60146;52.498;13.462;2023-09-07T00:06:35;8.67;;;4.93;;
72235;SDS011;60146;52.498;13.462;2023-09-07T00:09:01;6.93;;;4.17;;
72235;SDS011;60146;52.498;13.462;2023-09-07T00:11:27;6.67;;;4.10;;
72235;SDS011;60146;52.498;13.462;2023-09-07T00:13:52;6.83;;;4.17;;
72235;SDS011;60146;52.498;13.462;2023-09-07T00:16:18;6.63;;;4.40;;
72235;SDS011;60146;52.498;13.462;2023-09-07T00:18:43;7.50;;;4.57;;
72235;SDS011;60146;52.498;13.462;2023-09-07T00:21:09;5.93;;;4.00;;
72235;SDS011;60146;52.498;13.462;2023-09-07T00:23:34;8.17;;;4.30;;
72235;SDS011;60146;52.498;13.462;2023-09-07T00:26:00;7.87;;;4.40;;
72235;SDS011;60146;52.498;13.462;2023-09-07T00:28:25;8.47;;;4.90;;
72235;SDS011;60146;52.498;13.462;2023-09-07T00:30:50;7.73;;;4.50;;
72235;SDS011;60146;52.498;13.462;2023-09-07T00:33:16;11.00;;;4.90;;
72235;SDS011;60146;52.498;13.462;2023-09-07T00:35:41;7.07;;;4.17;;
72235;SDS011;60146;52.498;13.462;2023-09-07T00:38:07;6.83;;;4.40;;
72235;SDS011;60146;52.498;13.462;2023-09-07T00:40:32;6.17;;;4.40;;
72235;SDS011;60146;52.498;13.462;2023-09-07T00:42:58;5.67;;;4.00;;
72235;SDS011;60146;52.498;13.462;2023-09-07T00:45:24;7.00;;;4.27;;
72235;SDS011;60146;52.498;13.462;2023-09-07T00:47:49;8.03;;;4.30;;
72235;SDS011;60146;52.498;13.462;2023-09-07T00:50:15;5.43;;;4.00;;
72235;SDS011;60146;52.498;13.462;2023-09-07T00:52:44;13.10;;;4.47;;
72235;SDS011;60146;52.498;13.462;2023-09-07T00:55:12;7.43;;;3.83;;
72235;SDS011;60146;52.498;13.462;2023-09-07T00:57:38;5.83;;;3.57;;
72235;SDS011;60146;52.498;13.462;2023-09-07T01:00:07;6.68;;;4.18;;
72235;SDS011;60146;52.498;13.462;2023-09-07T01:02:34;5.83;;;4.17;;
72235;SDS011;60146;52.498;13.462;2023-09-07T01:05:00;6.67;;;4.20;;
72235;SDS011;60146;52.498;13.462;2023-09-07T01:07:32;9.32;;;4.13;;
72235;SDS011;60146;52.498;13.462;2023-09-07T01:10:02;7.03;;;4.37;;
72235;SDS011;60146;52.498;13.462;2023-09-07T01:12:28;6.60;;;4.37;;
72235;SDS011;60146;52.498;13.462;2023-09-07T01:14:54;6.63;;;4.03;;
72235;SDS011;60146;52.498;13.462;2023-09-07T01:17:19;6.00;;;4.23;;
72235;SDS011;60146;52.498;13.462;2023-09-07T01:19:46;9.53;;;4.40;;
72235;SDS011;60146;52.498;13.462;2023-09-07T01:22:15;7.93;;;4.37;;
72235;SDS011;60146;52.498;13.462;2023-09-07T01:24:42;6.77;;;4.53;;
72235;SDS011;60146;52.498;13.462;2023-09-07T01:27:10;11.43;;;5.23;;
72235;SDS011;60146;52.498;13.462;2023-09-07T01:29:36;7.37;;;4.50;;
72235;SDS011;60146;52.498;13.462;2023-09-07T01:32:02;7.13;;;4.07;;
72235;SDS011;60146;52.498;13.462;2023-09-07T01:34:29;7.47;;;4.77;;
72235;SDS011;60146;52.498;13.462;2023-09-07T01:36:54;6.53;;;4.50;;
72235;SDS011;60146;52.498;13.462;2023-09-07T01:39:19;7.47;;;4.40;;
72235;SDS011;60146;52.498;13.462;2023-09-07T01:41:45;7.67;;;4.80;;
72235;SDS011;60146;52.498;13.462;2023-09-07T01:44:10;9.90;;;4.57;;
72235;SDS011;60146;52.498;13.462;2023-09-07T01:46:35;9.23;;;5.00;;
72235;SDS011;60146;52.498;13.462;2023-09-07T01:49:01;7.77;;;4.63;;
72235;SDS011;60146;52.498;13.462;2023-09-07T01:51:27;7.93;;;4.70;;
72235;SDS011;60146;52.498;13.462;2023-09-07T01:53:53;7.07;;;4.20;;
72235;SDS011;60146;52.498;13.462;2023-09-07T01:56:19;6.93;;;4.67;;
72235;SDS011;60146;52.498;13.462;2023-09-07T01:58:44;7.47;;;4.50;;
72235;SDS011;60146;52.498;13.462;2023-09-07T02:01:26;6.57;;;4.60;;
72235;SDS011;60146;52.498;13.462;2023-09-07T02:03:56;6.73;;;4.40;;
72235;SDS011;60146;52.498;13.462;2023-09-07T02:06:21;5.57;;;4.47;;
72235;SDS011;60146;52.498;13.462;2023-09-07T02:08:47;6.93;;;4.27;;
72235;SDS011;60146;52.498;13.462;2023-09-07T02:11:13;7.87;;;4.90;;
72235;SDS011;60146;52.498;13.462;2023-09-07T02:13:42;8.67;;;4.80;;
72235;SDS011;60146;52.498;13.462;2023-09-07T02:16:08;6.35;;;4.18;;
72235;SDS011;60146;52.498;13.462;2023-09-07T02:18:33;6.43;;;4.37;;
72235;SDS011;60146;52.498;13.462;2023-09-07T02:21:02;7.37;;;4.73;;
72235;SDS011;60146;52.498;13.462;2023-09-07T02:23:29;7.70;;;4.80;;
72235;SDS011;60146;52.498;13.462;2023-09-07T02:25:55;11.40;;;4.67;;
72235;SDS011;60146;52.498;13.462;2023-09-07T02:28:21;8.83;;;4.23;;
72235;SDS011;60146;52.498;13.462;2023-09-07T02:30:46;7.43;;;4.70;;
72235;SDS011;60146;52.498;13.462;2023-09-07T02:33:11;7.00;;;4.67;;
72235;SDS011;60146;52.498;13.462;2023-09-07T02:35:37;7.60;;;4.97;;
72235;SDS011;60146;52.498;13.462;2023-09-07T02:38:02;6.63;;;4.67;;
72235;SDS011;60146;52.498;13.462;2023-09-07T02:40:28;8.87;;;4.40;;
72235;SDS011;60146;52.498;13.462;2023-09-07T02:42:53;7.93;;;4.77;;
72235;SDS011;60146;52.498;13.462;2023-09-07T02:45:19;6.80;;;4.43;;
72235;SDS011;60146;52.498;13.462;2023-09-07T02:47:44;8.10;;;4.83;;
72235;SDS011;60146;52.498;13.462;2023-09-07T02:50:09;6.50;;;4.47;;
72235;SDS011;60146;52.498;13.462;2023-09-07T02:52:35;9.90;;;4.90;;
72235;SDS011;60146;52.498;13.462;2023-09-07T02:55:00;11.47;;;5.20;;
72235;SDS011;60146;52.498;13.462;2023-09-07T02:57:25;6.93;;;4.47;;
72235;SDS011;60146;52.498;13.462;2023-09-07T02:59:52;7.70;;;4.80;;
72235;SDS011;60146;52.498;13.462;2023-09-07T03:02:18;8.67;;;5.17;;
72235;SDS011;60146;52.498;13.462;2023-09-07T03:04:43;7.53;;;4.63;;
72235;SDS011;60146;52.498;13.462;2023-09-07T03:07:08;6.93;;;4.60;;
72235;SDS011;60146;52.498;13.462;2023-09-07T03:09:34;7.10;;;4.73;;
72235;SDS011;60146;52.498;13.462;2023-09-07T03:11:59;6.47;;;4.60;;
72235;SDS011;60146;52.498;13.462;2023-09-07T03:14:25;8.27;;;4.80;;
72235;SDS011;60146;52.498;13.462;2023-09-07T03:16:50;9.67;;;4.57;;
72235;SDS011;60146;52.498;13.462;2023-09-07T03:19:16;7.87;;;4.90;;
72235;SDS011;60146;52.498;13.462;2023-09-07T03:21:41;10.67;;;5.17;;
72235;SDS011;60146;52.498;13.462;2023-09-07T03:24:07;7.07;;;4.27;;
72235;SDS011;60146;52.498;13.462;2023-09-07T03:26:33;8.57;;;4.67;;
72235;SDS011;60146;52.498;13.462;2023-09-07T03:28:58;10.97;;;5.10;;
72235;SDS011;60146;52.498;13.462;2023-09-07T03:31:23;9.17;;;4.97;;
72235;SDS011;60146;52.498;13.462;2023-09-07T03:33:49;8.83;;;4.53;;
72235;SDS011;60146;52.498;13.462;2023-09-07T03:36:14;9.50;;;4.70;;
72235;SDS011;60146;52.498;13.462;2023-09-07T03:38:40;7.70;;;4.57;;
72235;SDS011;60146;52.498;13.462;2023-09-07T03:41:06;13.97;;;5.37;;
72235;SDS011;60146;52.498;13.462;2023-09-07T03:43:32;11.70;;;5.63;;
72235;SDS011;60146;52.498;13.462;2023-09-07T03:45:57;7.50;;;5.10;;
72235;SDS011;60146;52.498;13.462;2023-09-07T03:48:23;9.87;;;5.33;;
72235;SDS011;60146;52.498;13.462;2023-09-07T03:50:48;8.77;;;5.20;;
72235;SDS011;60146;52.498;13.462;2023-09-07T03:53:14;8.83;;;5.53;;
72235;SDS011;60146;52.498;13.462;2023-09-07T03:55:43;8.87;;;5.47;;
72235;SDS011;60146;52.498;13.462;2023-09-07T03:58:09;8.32;;;5.07;;
72235;SDS011;60146;52.498;13.462;2023-09-07T04:00:37;8.23;;;5.13;;
72235;SDS011;60146;52.498;13.462;2023-09-07T04:03:04;9.70;;;5.53;;
72235;SDS011;60146;52.498;13.462;2023-09-07T04:05:29;11.87;;;5.50;;
72235;SDS011;60146;52.498;13.462;2023-09-07T04:07:55;7.40;;;5.17;;
72235;SDS011;60146;52.498;13.462;2023-09-07T04:10:20;10.30;;;5.77;;
72235;SDS011;60146;52.498;13.462;2023-09-07T04:12:45;11.77;;;5.63;;
72235;SDS011;60146;52.498;13.462;2023-09-07T04:15:11;8.43;;;5.30;;
72235;SDS011;60146;52.498;13.462;2023-09-07T04:17:36;9.03;;;5.70;;
72235;SDS011;60146;52.498;13.462;2023-09-07T04:20:05;8.83;;;5.30;;
72235;SDS011;60146;52.498;13.462;2023-09-07T04:22:33;10.80;;;5.70;;
72235;SDS011;60146;52.498;13.462;2023-09-07T04:24:58;12.27;;;5.90;;
72235;SDS011;60146;52.498;13.462;2023-09-07T04:27:23;8.30;;;5.37;;
72235;SDS011;60146;52.498;13.462;2023-09-07T04:29:49;13.93;;;5.50;;
72235;SDS011;60146;52.498;13.462;2023-09-07T04:32:15;8.73;;;5.67;;
72235;SDS011;60146;52.498;13.462;2023-09-07T04:34:40;9.70;;;5.80;;
72235;SDS011;60146;52.498;13.462;2023-09-07T04:37:05;13.33;;;5.33;;
72235;SDS011;60146;52.498;13.462;2023-09-07T04:39:31;10.17;;;6.10;;
72235;SDS011;60146;52.498;13.462;2023-09-07T04:41:56;10.60;;;5.40;;
72235;SDS011;60146;52.498;13.462;2023-09-07T04:44:22;10.57;;;5.40;;
72235;SDS011;60146;52.498;13.462;2023-09-07T04:46:47;10.73;;;5.53;;
72235;SDS011;60146;52.498;13.462;2023-09-07T04:49:12;9.70;;;5.30;;
72235;SDS011;60146;52.498;13.462;2023-09-07T04:51:38;11.73;;;6.03;;
72235;SDS011;60146;52.498;13.462;2023-09-07T04:54:03;10.27;;;5.60;;
72235;SDS011;60146;52.498;13.462;2023-09-07T04:56:29;8.70;;;5.37;;
72235;SDS011;60146;52.498;13.462;2023-09-07T04:58:54;10.67;;;5.57;;
72235;SDS011;60146;52.498;13.462;2023-09-07T05:01:20;12.13;;;5.83;;
72235;SDS011;60146;52.498;13.462;2023-09-07T05:03:45;11.33;;;5.80;;
72235;SDS011;60146;52.498;13.462;2023-09-07T05:06:11;9.33;;;5.47;;
72235;SDS011;60146;52.498;13.462;2023-09-07T05:08:36;11.43;;;5.73;;
72235;SDS011;60146;52.498;13.462;2023-09-07T05:11:02;10.20;;;5.40;;
72235;SDS011;60146;52.498;13.462;2023-09-07T05:13:29;12.73;;;5.77;;
72235;SDS011;60146;52.498;13.462;2023-09-07T05:15:55;12.70;;;5.33;;
72235;SDS011;60146;52.498;13.462;2023-09-07T05:18:21;10.87;;;5.33;;
72235;SDS011;60146;52.498;13.462;2023-09-07T05:20:47;13.90;;;6.00;;
72235;SDS011;60146;52.498;13.462;2023-09-07T05:23:14;10.33;;;5.73;;
72235;SDS011;60146;52.498;13.462;2023-09-07T05:25:50;9.17;;;5.43;;
72235;SDS011;60146;52.498;13.462;2023-09-07T05:28:21;11.88;;;5.53;;
72235;SDS011;60146;52.498;13.462;2023-09-07T05:30:47;10.03;;;5.67;;
72235;SDS011;60146;52.498;13.462;2023-09-07T05:33:14;13.33;;;5.97;;
72235;SDS011;60146;52.498;13.462;2023-09-07T05:35:40;9.33;;;4.83;;
72235;SDS011;60146;52.498;13.462;2023-09-07T05:38:07;11.17;;;5.57;;
72235;SDS011;60146;52.498;13.462;2023-09-07T05:40:36;8.83;;;5.23;;
72235;SDS011;60146;52.498;13.462;2023-09-07T05:43:02;12.88;;;5.80;;
72235;SDS011;60146;52.498;13.462;2023-09-07T05:45:29;9.13;;;5.00;;
72235;SDS011;60146;52.498;13.462;2023-09-07T05:47:56;11.20;;;5.73;;
72235;SDS011;60146;52.498;13.462;2023-09-07T05:50:21;12.40;;;5.37;;
72235;SDS011;60146;52.498;13.462;2023-09-07T05:52:47;12.20;;;5.63;;
72235;SDS011;60146;52.498;13.462;2023-09-07T05:55:12;18.70;;;5.70;;
72235;SDS011;60146;52.498;13.462;2023-09-07T05:57:37;15.27;;;6.57;;
72235;SDS011;60146;52.498;13.462;2023-09-07T06:00:03;8.80;;;5.27;;
72235;SDS011;60146;52.498;13.462;2023-09-07T06:02:29;10.03;;;6.10;;
72235;SDS011;60146;52.498;13.462;2023-09-07T06:04:55;12.40;;;5.40;;
72235;SDS011;60146;52.498;13.462;2023-09-07T06:07:21;9.00;;;5.10;;
72235;SDS011;60146;52.498;13.462;2023-09-07T06:09:46;11.40;;;5.33;;
72235;SDS011;60146;52.498;13.462;2023-09-07T06:12:12;14.43;;;5.33;;
72235;SDS011;60146;52.498;13.462;2023-09-07T06:14:38;12.87;;;5.73;;
72235;SDS011;60146;52.498;13.462;2023-09-07T06:17:03;11.40;;;5.70;;
72235;SDS011;60146;52.498;13.462;2023-09-07T06:19:29;13.87;;;5.40;;
72235;SDS011;60146;52.498;13.462;2023-09-07T06:21:55;12.57;;;5.60;;
72235;SDS011;60146;52.498;13.462;2023-09-07T06:24:20;10.25;;;5.43;;
72235;SDS011;60146;52.498;13.462;2023-09-07T06:26:45;11.83;;;5.87;;
72235;SDS011;60146;52.498;13.462;2023-09-07T06:29:11;10.13;;;5.38;;
72235;SDS011;60146;52.498;13.462;2023-09-07T06:31:36;8.75;;;4.88;;
72235;SDS011;60146;52.498;13.462;2023-09-07T06:34:01;10.77;;;4.85;;
72235;SDS011;60146;52.498;13.462;2023-09-07T06:36:29;9.20;;;5.25;;
72235;SDS011;60146;52.498;13.462;2023-09-07T06:38:54;6.35;;;4.63;;
72235;SDS011;60146;52.498;13.462;2023-09-07T06:41:20;10.27;;;5.32;;
72235;SDS011;60146;52.498;13.462;2023-09-07T06:43:45;7.90;;;4.63;;
72235;SDS011;60146;52.498;13.462;2023-09-07T06:46:11;10.48;;;5.50;;
72235;SDS011;60146;52.498;13.462;2023-09-07T06:48:36;17.55;;;5.38;;
72235;SDS011;60146;52.498;13.462;2023-09-07T06:51:05;11.82;;;4.70;;
72235;SDS011;60146;52.498;13.462;2023-09-07T06:53:31;11.77;;;5.53;;
72235;SDS011;60146;52.498;13.462;2023-09-07T06:56:00;11.52;;;4.85;;
72235;SDS011;60146;52.498;13.462;2023-09-07T06:58:26;13.00;;;5.55;;
72235;SDS011;60146;52.498;13.462;2023-09-07T07:00:52;12.40;;;4.65;;
72235;SDS011;60146;52.498;13.462;2023-09-07T07:03:18;12.48;;;5.28;;
72235;SDS011;60146;52.498;13.462;2023-09-07T07:05:43;7.60;;;4.40;;
72235;SDS011;60146;52.498;13.462;2023-09-07T07:08:09;9.23;;;5.20;;
72235;SDS011;60146;52.498;13.462;2023-09-07T07:10:34;10.38;;;5.40;;
72235;SDS011;60146;52.498;13.462;2023-09-07T07:13:00;8.02;;;4.80;;
72235;SDS011;60146;52.498;13.462;2023-09-07T07:15:25;11.23;;;4.93;;
72235;SDS011;60146;52.498;13.462;2023-09-07T07:17:50;10.65;;;4.90;;
72235;SDS011;60146;52.498;13.462;2023-09-07T07:20:16;11.35;;;5.10;;
72235;SDS011;60146;52.498;13.462;2023-09-07T07:22:41;7.35;;;4.53;;
72235;SDS011;60146;52.498;13.462;2023-09-07T07:25:07;7.65;;;4.70;;
72235;SDS011;60146;52.498;13.462;2023-09-07T07:27:32;7.55;;;4.78;;
72235;SDS011;60146;52.498;13.462;2023-09-07T07:29:58;7.80;;;4.60;;
72235;SDS011;60146;52.498;13.462;2023-09-07T07:32:23;12.35;;;5.30;;
72235;SDS011;60146;52.498;13.462;2023-09-07T07:34:49;9.43;;;4.75;;
72235;SDS011;60146;52.498;13.462;2023-09-07T07:37:15;12.68;;;4.53;;
72235;SDS011;60146;52.498;13.462;2023-09-07T07:39:40;7.40;;;4.65;;
72235;SDS011;60146;52.498;13.462;2023-09-07T07:42:05;7.57;;;4.63;;
72235;SDS011;60146;52.498;13.462;2023-09-07T07:44:31;9.80;;;4.97;;
72235;SDS011;60146;52.498;13.462;2023-09-07T07:46:56;8.50;;;4.18;;
72235;SDS011;60146;52.498;13.462;2023-09-07T07:49:22;9.07;;;4.50;;
72235;SDS011;60146;52.498;13.462;2023-09-07T07:51:47;7.90;;;4.53;;
72235;SDS011;60146;52.498;13.462;2023-09-07T07:54:12;10.38;;;5.07;;
72235;SDS011;60146;52.498;13.462;2023-09-07T07:56:38;8.70;;;4.90;;
72235;SDS011;60146;52.498;13.462;2023-09-07T07:59:04;6.60;;;4.20;;
72235;SDS011;60146;52.498;13.462;2023-09-07T08:01:29;9.85;;;4.68;;
72235;SDS011;60146;52.498;13.462;2023-09-07T08:03:55;7.78;;;4.40;;
72235;SDS011;60146;52.498;13.462;2023-09-07T08:06:20;6.85;;;4.13;;
72235;SDS011;60146;52.498;13.462;2023-09-07T08:08:45;6.82;;;4.00;;
72235;SDS011;60146;52.498;13.462;2023-09-07T08:11:11;9.73;;;4.35;;
72235;SDS011;60146;52.498;13.462;2023-09-07T08:13:36;9.38;;;4.68;;
72235;SDS011;60146;52.498;13.462;2023-09-07T08:16:02;7.05;;;4.10;;
72235;SDS011;60146;52.498;13.462;2023-09-07T08:18:28;8.05;;;4.70;;
72235;SDS011;60146;52.498;13.462;2023-09-07T08:20:55;6.45;;;3.70;;
72235;SDS011;60146;52.498;13.462;2023-09-07T08:23:21;7.35;;;4.10;;
72235;SDS011;60146;52.498;13.462;2023-09-07T08:25:48;8.50;;;4.10;;
72235;SDS011;60146;52.498;13.462;2023-09-07T08:28:13;6.90;;;3.60;;
72235;SDS011;60146;52.498;13.462;2023-09-07T08:30:41;6.50;;;4.30;;
72235;SDS011;60146;52.498;13.462;2023-09-07T08:33:07;9.70;;;3.90;;
72235;SDS011;60146;52.498;13.462;2023-09-07T08:35:34;6.97;;;3.60;;
72235;SDS011;60146;52.498;13.462;2023-09-07T08:38:01;7.30;;;3.63;;
72235;SDS011;60146;52.498;13.462;2023-09-07T08:42:55;8.05;;;4.07;;
72235;SDS011;60146;52.498;13.462;2023-09-07T08:45:21;15.18;;;6.10;;
72235;SDS011;60146;52.498;13.462;2023-09-07T08:47:50;7.85;;;3.70;;
72235;SDS011;60146;52.498;13.462;2023-09-07T08:50:17;10.55;;;3.88;;
72235;SDS011;60146;52.498;13.462;2023-09-07T08:52:44;6.40;;;3.80;;
72235;SDS011;60146;52.498;13.462;2023-09-07T08:55:10;7.68;;;3.67;;
72235;SDS011;60146;52.498;13.462;2023-09-07T08:57:36;8.02;;;3.55;;
72235;SDS011;60146;52.498;13.462;2023-09-07T09:00:02;9.23;;;3.53;;
72235;SDS011;60146;52.498;13.462;2023-09-07T09:02:32;11.20;;;4.25;;
72235;SDS011;60146;52.498;13.462;2023-09-07T09:04:57;7.35;;;3.50;;
72235;SDS011;60146;52.498;13.462;2023-09-07T09:07:23;11.85;;;3.80;;
72235;SDS011;60146;52.498;13.462;2023-09-07T09:09:48;9.93;;;3.53;;
72235;SDS011;60146;52.498;13.462;2023-09-07T09:12:14;13.35;;;4.22;;
72235;SDS011;60146;52.498;13.462;2023-09-07T09:14:43;8.98;;;3.38;;
72235;SDS011;60146;52.498;13.462;2023-09-07T09:17:13;12.30;;;4.10;;
72235;SDS011;60146;52.498;13.462;2023-09-07T09:19:39;6.85;;;3.55;;
72235;SDS011;60146;52.498;13.462;2023-09-07T09:22:04;11.38;;;3.40;;
72235;SDS011;60146;52.498;13.462;2023-09-07T09:24:34;6.05;;;3.65;;
72235;SDS011;60146;52.498;13.462;2023-09-07T09:27:03;9.60;;;3.50;;
72235;SDS011;60146;52.498;13.462;2023-09-07T09:29:34;10.25;;;3.85;;
72235;SDS011;60146;52.498;13.462;2023-09-07T09:32:03;7.45;;;3.25;;
72235;SDS011;60146;52.498;13.462;2023-09-07T09:34:36;9.57;;;3.53;;
72235;SDS011;60146;52.498;13.462;2023-09-07T09:37:02;5.28;;;3.15;;
72235;SDS011;60146;52.498;13.462;2023-09-07T09:39:29;7.65;;;3.58;;
72235;SDS011;60146;52.498;13.462;2023-09-07T09:41:54;7.38;;;3.88;;
72235;SDS011;60146;52.498;13.462;2023-09-07T09:44:21;9.10;;;3.45;;
72235;SDS011;60146;52.498;13.462;2023-09-07T09:46:51;7.15;;;3.80;;
72235;SDS011;60146;52.498;13.462;2023-09-07T09:49:19;5.65;;;3.50;;
72235;SDS011;60146;52.498;13.462;2023-09-07T09:51:45;9.60;;;3.58;;
72235;SDS011;60146;52.498;13.462;2023-09-07T09:54:13;11.60;;;3.88;;
72235;SDS011;60146;52.498;13.462;2023-09-07T09:56:39;7.00;;;3.80;;
72235;SDS011;60146;52.498;13.462;2023-09-07T09:59:04;9.48;;;3.88;;
72235;SDS011;60146;52.498;13.462;2023-09-07T10:01:29;11.27;;;3.58;;
72235;SDS011;60146;52.498;13.462;2023-09-07T10:03:56;6.40;;;3.53;;
72235;SDS011;60146;52.498;13.462;2023-09-07T10:06:23;7.95;;;3.60;;
72235;SDS011;60146;52.498;13.462;2023-09-07T10:09:03;8.82;;;3.28;;
72235;SDS011;60146;52.498;13.462;2023-09-07T10:11:35;7.60;;;3.20;;
72235;SDS011;60146;52.498;13.462;2023-09-07T10:14:05;6.47;;;3.28;;
72235;SDS011;60146;52.498;13.462;2023-09-07T10:16:44;6.13;;;3.08;;
72235;SDS011;60146;52.498;13.462;2023-09-07T10:21:44;10.10;;;3.20;;
72235;SDS011;60146;52.498;13.462;2023-09-07T10:24:09;6.80;;;3.33;;
72235;SDS011;60146;52.498;13.462;2023-09-07T10:26:36;10.65;;;3.00;;
72235;SDS011;60146;52.498;13.462;2023-09-07T10:29:02;5.47;;;3.20;;
72235;SDS011;60146;52.498;13.462;2023-09-07T10:31:30;9.43;;;2.88;;
72235;SDS011;60146;52.498;13.462;2023-09-07T10:33:56;11.15;;;3.65;;
72235;SDS011;60146;52.498;13.462;2023-09-07T10:36:22;8.68;;;3.40;;
72235;SDS011;60146;52.498;13.462;2023-09-07T10:38:52;4.43;;;3.30;;
72235;SDS011;60146;52.498;13.462;2023-09-07T10:41:19;5.57;;;3.28;;
72235;SDS011;60146;52.498;13.462;2023-09-07T10:46:14;4.32;;;3.00;;
72235;SDS011;60146;52.498;13.462;2023-09-07T10:48:39;6.95;;;3.22;;
72235;SDS011;60146;52.498;13.462;2023-09-07T10:51:05;3.70;;;2.95;;
72235;SDS011;60146;52.498;13.462;2023-09-07T10:53:31;7.13;;;3.30;;
72235;SDS011;60146;52.498;13.462;2023-09-07T10:56:04;9.27;;;3.45;;
72235;SDS011;60146;52.498;13.462;2023-09-07T10:58:30;5.05;;;2.75;;
72235;SDS011;60146;52.498;13.462;2023-09-07T11:00:57;8.05;;;2.72;;
72235;SDS011;60146;52.498;13.462;2023-09-07T11:03:25;5.38;;;2.97;;
72235;SDS011;60146;52.498;13.462;2023-09-07T11:05:55;3.83;;;2.90;;
72235;SDS011;60146;52.498;13.462;2023-09-07T11:08:25;5.28;;;2.50;;
72235;SDS011;60146;52.498;13.462;2023-09-07T11:10:52;2.80;;;2.50;;
72235;SDS011;60146;52.498;13.462;2023-09-07T11:13:17;7.07;;;2.80;;
72235;SDS011;60146;52.498;13.462;2023-09-07T11:15:43;5.40;;;2.70;;
72235;SDS011;60146;52.498;13.462;2023-09-07T11:18:08;3.17;;;2.55;;
72235;SDS011;60146;52.498;13.462;2023-09-07T11:20:35;5.63;;;2.80;;
72235;SDS011;60146;52.498;13.462;2023-09-07T11:23:02;5.60;;;2.63;;
72235;SDS011;60146;52.498;13.462;2023-09-07T11:25:33;4.35;;;2.58;;
72235;SDS011;60146;52.498;13.462;2023-09-07T11:27:59;4.53;;;2.50;;
72235;SDS011;60146;52.498;13.462;2023-09-07T11:30:24;8.57;;;2.78;;
72235;SDS011;60146;52.498;13.462;2023-09-07T11:32:50;4.25;;;2.03;;
72235;SDS011;60146;52.498;13.462;2023-09-07T11:35:15;5.32;;;2.33;;
72235;SDS011;60146;52.498;13.462;2023-09-07T11:37:40;3.53;;;2.40;;
72235;SDS011;60146;52.498;13.462;2023-09-07T11:40:06;4.60;;;2.78;;
72235;SDS011;60146;52.498;13.462;2023-09-07T11:42:37;3.33;;;2.60;;
72235;SDS011;60146;52.498;13.462;2023-09-07T11:45:04;4.65;;;2.65;;
72235;SDS011;60146;52.498;13.462;2023-09-07T11:47:31;3.40;;;2.55;;
72235;SDS011;60146;52.498;13.462;2023-09-07T11:49:56;2.90;;;2.40;;
72235;SDS011;60146;52.498;13.462;2023-09-07T11:52:22;3.58;;;2.70;;
72235;SDS011;60146;52.498;13.462;2023-09-07T11:54:47;5.22;;;2.78;;
72235;SDS011;60146;52.498;13.462;2023-09-07T11:57:12;3.80;;;2.50;;
72235;SDS011;60146;52.498;13.462;2023-09-07T11:59:38;3.83;;;2.28;;
72235;SDS011;60146;52.498;13.462;2023-09-07T12:02:04;3.85;;;2.50;;
72235;SDS011;60146;52.498;13.462;2023-09-07T12:04:29;3.40;;;2.42;;
72235;SDS011;60146;52.498;13.462;2023-09-07T12:06:55;3.53;;;2.58;;
72235;SDS011;60146;52.498;13.462;2023-09-07T12:09:21;3.60;;;2.80;;
72235;SDS011;60146;52.498;13.462;2023-09-07T12:11:46;5.20;;;2.75;;
72235;SDS011;60146;52.498;13.462;2023-09-07T12:14:11;4.38;;;2.70;;
72235;SDS011;60146;52.498;13.462;2023-09-07T12:16:37;5.18;;;3.53;;
72235;SDS011;60146;52.498;13.462;2023-09-07T12:19:02;9.00;;;2.90;;
72235;SDS011;60146;52.498;13.462;2023-09-07T12:21:27;3.65;;;2.55;;
72235;SDS011;60146;52.498;13.462;2023-09-07T12:23:53;4.07;;;2.50;;
72235;SDS011;60146;52.498;13.462;2023-09-07T12:26:19;6.13;;;2.85;;
72235;SDS011;60146;52.498;13.462;2023-09-07T12:28:46;5.47;;;2.72;;
72235;SDS011;60146;52.498;13.462;2023-09-07T12:31:12;4.10;;;2.45;;
72235;SDS011;60146;52.498;13.462;2023-09-07T12:33:37;10.27;;;3.20;;
72235;SDS011;60146;52.498;13.462;2023-09-07T12:36:03;4.70;;;2.50;;
72235;SDS011;60146;52.498;13.462;2023-09-07T12:38:34;3.40;;;2.53;;
72235;SDS011;60146;52.498;13.462;2023-09-07T12:40:59;3.42;;;2.38;;
72235;SDS011;60146;52.498;13.462;2023-09-07T12:43:24;6.10;;;2.70;;
72235;SDS011;60146;52.498;13.462;2023-09-07T12:45:50;3.55;;;2.40;;
72235;SDS011;60146;52.498;13.462;2023-09-07T12:48:15;4.25;;;2.60;;
72235;SDS011;60146;52.498;13.462;2023-09-07T12:50:41;8.20;;;2.70;;
72235;SDS011;60146;52.498;13.462;2023-09-07T12:53:06;6.53;;;2.80;;
72235;SDS011;60146;52.498;13.462;2023-09-07T12:55:31;3.65;;;2.85;;
72235;SDS011;60146;52.498;13.462;2023-09-07T12:57:58;9.00;;;3.30;;
72235;SDS011;60146;52.498;13.462;2023-09-07T13:00:25;6.15;;;2.88;;
72235;SDS011;60146;52.498;13.462;2023-09-07T13:02:50;3.75;;;3.17;;
72235;SDS011;60146;52.498;13.462;2023-09-07T13:05:19;5.68;;;3.13;;
72235;SDS011;60146;52.498;13.462;2023-09-07T13:07:48;7.05;;;2.97;;
72235;SDS011;60146;52.498;13.462;2023-09-07T13:10:13;6.93;;;3.28;;
72235;SDS011;60146;52.498;13.462;2023-09-07T13:12:39;14.45;;;3.42;;
72235;SDS011;60146;52.498;13.462;2023-09-07T13:15:06;8.55;;;2.90;;
72235;SDS011;60146;52.498;13.462;2023-09-07T13:17:32;8.20;;;3.40;;
72235;SDS011;60146;52.498;13.462;2023-09-07T13:19:57;9.65;;;2.90;;
72235;SDS011;60146;52.498;13.462;2023-09-07T13:22:23;5.90;;;3.00;;
72235;SDS011;60146;52.498;13.462;2023-09-07T13:24:48;4.68;;;3.05;;
72235;SDS011;60146;52.498;13.462;2023-09-07T13:27:15;5.57;;;3.17;;
72235;SDS011;60146;52.498;13.462;2023-09-07T13:29:40;8.05;;;3.03;;
72235;SDS011;60146;52.498;13.462;2023-09-07T13:32:06;4.25;;;2.97;;
72235;SDS011;60146;52.498;13.462;2023-09-07T13:34:31;6.05;;;3.08;;
72235;SDS011;60146;52.498;13.462;2023-09-07T13:36:57;6.50;;;3.33;;
72235;SDS011;60146;52.498;13.462;2023-09-07T13:39:22;5.70;;;2.90;;
72235;SDS011;60146;52.498;13.462;2023-09-07T13:41:48;4.82;;;2.90;;
72235;SDS011;60146;52.498;13.462;2023-09-07T13:44:14;5.28;;;2.90;;
72235;SDS011;60146;52.498;13.462;2023-09-07T13:46:40;4.50;;;2.95;;
72235;SDS011;60146;52.498;13.462;2023-09-07T13:49:05;8.10;;;3.58;;
72235;SDS011;60146;52.498;13.462;2023-09-07T13:51:31;4.80;;;3.00;;
72235;SDS011;60146;52.498;13.462;2023-09-07T13:54:02;11.02;;;3.28;;
72235;SDS011;60146;52.498;13.462;2023-09-07T13:56:28;5.13;;;3.13;;
72235;SDS011;60146;52.498;13.462;2023-09-07T13:58:53;8.02;;;3.25;;
72235;SDS011;60146;52.498;13.462;2023-09-07T14:01:19;4.72;;;3.00;;
72235;SDS011;60146;52.498;13.462;2023-09-07T14:03:44;6.15;;;3.30;;
72235;SDS011;60146;52.498;13.462;2023-09-07T14:06:09;18.67;;;4.05;;
72235;SDS011;60146;52.498;13.462;2023-09-07T14:08:35;5.93;;;3.03;;
72235;SDS011;60146;52.498;13.462;2023-09-07T14:11:00;5.22;;;3.25;;
72235;SDS011;60146;52.498;13.462;2023-09-07T14:13:26;11.27;;;3.50;;
72235;SDS011;60146;52.498;13.462;2023-09-07T14:15:51;10.20;;;3.70;;
72235;SDS011;60146;52.498;13.462;2023-09-07T14:18:17;7.65;;;3.50;;
72235;SDS011;60146;52.498;13.462;2023-09-07T14:20:42;6.30;;;3.03;;
72235;SDS011;60146;52.498;13.462;2023-09-07T14:23:08;5.88;;;3.33;;
72235;SDS011;60146;52.498;13.462;2023-09-07T14:25:33;4.80;;;3.00;;
72235;SDS011;60146;52.498;13.462;2023-09-07T14:27:59;9.23;;;3.53;;
72235;SDS011;60146;52.498;13.462;2023-09-07T14:30:25;5.45;;;3.13;;
72235;SDS011;60146;52.498;13.462;2023-09-07T14:32:50;8.90;;;3.22;;